createdAt,value
2018-06-13T00:00:18.618Z,12.63
2018-06-13T00:02:48.011Z,12.87
2018-06-13T00:05:17.929Z,12.10
2018-06-13T00:07:46.672Z,11.40
2018-06-13T00:10:15.946Z,11.23
2018-06-13T00:12:44.476Z,10.90
2018-06-13T00:15:13.281Z,11.23
2018-06-13T00:17:42.600Z,12.70
2018-06-13T00:20:11.748Z,12.33
2018-06-13T00:22:42.111Z,11.67
2018-06-13T00:25:10.668Z,12.50
2018-06-13T00:27:41.724Z,11.10
2018-06-13T00:30:10.294Z,11.13
2018-06-13T00:32:40.334Z,10.93
2018-06-13T00:35:09.613Z,11.03
2018-06-13T00:37:38.070Z,11.30
2018-06-13T00:40:06.626Z,11.87
2018-06-13T00:42:35.657Z,11.00
2018-06-13T00:45:04.297Z,11.90
2018-06-13T00:47:33.332Z,11.37
2018-06-13T00:50:01.803Z,11.60
2018-06-13T00:52:30.323Z,11.03
2018-06-13T00:54:59.415Z,11.30
2018-06-13T00:57:28.453Z,11.00
2018-06-13T00:59:58.006Z,11.27
2018-06-13T01:02:26.795Z,11.50
2018-06-13T01:04:55.301Z,10.50
2018-06-13T01:07:23.778Z,10.37
2018-06-13T01:09:52.307Z,10.60
2018-06-13T01:12:20.919Z,10.53
2018-06-13T01:14:49.429Z,11.50
2018-06-13T01:17:17.926Z,10.27
2018-06-13T01:19:46.882Z,11.03
2018-06-13T01:22:16.057Z,11.50
2018-06-13T01:24:44.638Z,12.23
2018-06-13T01:27:13.187Z,11.73
2018-06-13T01:29:41.873Z,11.43
2018-06-13T01:32:11.002Z,11.90
2018-06-13T01:34:39.503Z,10.33
2018-06-13T01:37:08.069Z,10.13
2018-06-13T01:39:36.554Z,10.87
2018-06-13T01:42:05.607Z,10.10
2018-06-13T01:44:34.146Z,9.17
2018-06-13T01:47:03.094Z,10.73
2018-06-13T01:49:31.588Z,10.23
2018-06-13T01:52:00.132Z,10.40
2018-06-13T01:54:29.391Z,10.53
2018-06-13T01:56:58.478Z,10.03
2018-06-13T01:59:27.784Z,12.13
2018-06-13T02:01:56.253Z,10.60
2018-06-13T02:04:24.742Z,11.20
2018-06-13T02:06:53.565Z,11.17
2018-06-13T02:09:26.553Z,10.73
2018-06-13T02:11:55.319Z,10.53
2018-06-13T02:14:23.820Z,10.60
2018-06-13T02:16:52.406Z,11.53
2018-06-13T02:19:20.923Z,10.83
2018-06-13T02:21:50.720Z,12.10
2018-06-13T02:24:19.134Z,11.57
2018-06-13T02:26:47.575Z,11.90
2018-06-13T02:29:16.192Z,11.23
2018-06-13T02:31:44.765Z,11.87
2018-06-13T02:34:13.591Z,11.70
2018-06-13T02:36:42.456Z,11.60
2018-06-13T02:39:10.913Z,11.93
2018-06-13T02:41:39.498Z,11.80
2018-06-13T02:44:08.019Z,12.00
2018-06-13T02:46:36.531Z,11.17
2018-06-13T02:49:05.506Z,10.37
2018-06-13T02:51:33.977Z,10.77
2018-06-13T02:54:02.980Z,11.80
2018-06-13T02:56:31.394Z,12.40
2018-06-13T02:59:00.025Z,10.90
2018-06-13T03:01:28.745Z,11.07
2018-06-13T03:03:57.281Z,10.77
2018-06-13T03:06:25.792Z,10.20
2018-06-13T03:08:54.245Z,11.57
2018-06-13T03:11:22.955Z,12.70
2018-06-13T03:13:51.468Z,11.43
2018-06-13T03:16:20.049Z,12.23
2018-06-13T03:18:48.662Z,12.50
2018-06-13T03:21:17.169Z,11.63
2018-06-13T03:23:46.296Z,11.87
2018-06-13T03:26:14.826Z,11.40
2018-06-13T03:28:43.345Z,11.53
2018-06-13T03:31:11.837Z,10.87
2018-06-13T03:33:40.438Z,11.03
2018-06-13T03:36:08.983Z,11.00
2018-06-13T03:38:37.573Z,10.70
2018-06-13T03:41:06.108Z,10.73
2018-06-13T03:43:34.659Z,10.63
2018-06-13T03:46:03.201Z,11.50
2018-06-13T03:48:33.283Z,11.00
2018-06-13T03:51:01.960Z,10.60
2018-06-13T03:53:31.461Z,10.80
2018-06-13T03:55:59.953Z,10.30
2018-06-13T03:58:28.457Z,10.47
2018-06-13T04:00:57.172Z,9.53
2018-06-13T04:03:26.099Z,9.10
2018-06-13T04:05:54.643Z,9.40
2018-06-13T04:08:23.129Z,9.97
2018-06-13T04:10:51.602Z,10.70
2018-06-13T04:13:20.111Z,10.07
2018-06-13T04:15:49.013Z,9.43
2018-06-13T04:18:18.117Z,9.67
2018-06-13T04:20:46.646Z,9.63
2018-06-13T04:23:15.431Z,10.93
2018-06-13T04:25:44.012Z,10.27
2018-06-13T04:28:13.476Z,9.70
2018-06-13T04:30:42.136Z,10.17
2018-06-13T04:33:11.405Z,9.93
2018-06-13T04:35:40.307Z,10.10
2018-06-13T04:38:09.953Z,9.17
2018-06-13T04:40:44.937Z,10.07
2018-06-13T04:43:13.622Z,9.70
2018-06-13T04:45:44.382Z,9.83
2018-06-13T04:48:13.168Z,10.00
2018-06-13T04:50:41.799Z,10.10
2018-06-13T04:53:10.495Z,10.03
2018-06-13T04:55:38.909Z,11.00
2018-06-13T04:58:07.682Z,9.67
2018-06-13T05:00:36.169Z,10.90
2018-06-13T05:03:04.657Z,10.10
2018-06-13T05:05:33.271Z,11.10
2018-06-13T05:08:01.792Z,10.50
2018-06-13T05:10:30.302Z,11.40
2018-06-13T05:12:58.877Z,11.60
2018-06-13T05:15:27.412Z,10.63
2018-06-13T05:17:56.064Z,10.73
2018-06-13T05:20:24.506Z,10.40
2018-06-13T05:22:52.956Z,11.10
2018-06-13T05:25:21.432Z,10.83
2018-06-13T05:27:49.874Z,10.97
2018-06-13T05:30:18.419Z,10.93
2018-06-13T05:32:47.213Z,11.20
2018-06-13T05:35:15.734Z,10.60
2018-06-13T05:37:44.222Z,10.67
2018-06-13T05:40:12.909Z,10.60
2018-06-13T05:42:42.097Z,10.70
2018-06-13T05:45:10.657Z,10.47
2018-06-13T05:47:39.168Z,11.30
2018-06-13T05:50:07.737Z,11.40
2018-06-13T05:52:36.419Z,12.33
2018-06-13T05:55:05.113Z,11.73
2018-06-13T05:57:33.606Z,12.83
2018-06-13T06:00:02.210Z,12.80
2018-06-13T06:02:31.608Z,11.80
2018-06-13T06:05:00.234Z,11.90
2018-06-13T06:07:29.018Z,11.73
2018-06-13T06:09:57.480Z,12.03
2018-06-13T06:12:26.525Z,12.07
2018-06-13T06:14:55.070Z,12.30
2018-06-13T06:17:24.838Z,11.87
2018-06-13T06:19:53.309Z,11.97
2018-06-13T06:22:21.866Z,12.80
2018-06-13T06:24:50.339Z,11.73
2018-06-13T06:27:18.842Z,12.10
2018-06-13T06:29:47.347Z,12.57
2018-06-13T06:32:16.199Z,11.47
2018-06-13T06:34:44.704Z,11.53
2018-06-13T06:37:13.594Z,11.23
2018-06-13T06:39:42.104Z,11.00
2018-06-13T06:42:10.739Z,12.20
2018-06-13T06:44:39.391Z,11.00
2018-06-13T06:47:07.857Z,11.50
2018-06-13T06:49:36.451Z,10.50
2018-06-13T06:52:04.952Z,10.77
2018-06-13T06:54:33.841Z,10.40
2018-06-13T06:57:02.313Z,11.07
2018-06-13T06:59:30.815Z,9.77
2018-06-13T07:01:59.700Z,9.90
2018-06-13T07:04:28.217Z,10.80
2018-06-13T07:06:57.552Z,10.00
2018-06-13T07:09:26.057Z,10.07
2018-06-13T07:11:54.505Z,9.70
2018-06-13T07:14:23.599Z,9.13
2018-06-13T07:16:52.052Z,8.53
2018-06-13T07:19:21.201Z,8.20
2018-06-13T07:21:49.748Z,8.70
2018-06-13T07:24:18.764Z,8.70
2018-06-13T07:26:47.212Z,7.57
2018-06-13T07:29:15.837Z,7.40
2018-06-13T07:31:44.279Z,7.30
2018-06-13T07:34:12.724Z,7.60
2018-06-13T07:36:41.235Z,8.57
2018-06-13T07:39:09.927Z,7.20
2018-06-13T07:41:38.662Z,7.37
2018-06-13T07:44:07.201Z,7.80
2018-06-13T07:46:35.648Z,7.30
2018-06-13T07:49:04.097Z,7.20
2018-06-13T07:51:32.634Z,7.30
2018-06-13T07:54:01.147Z,6.80
2018-06-13T07:56:29.968Z,7.33
2018-06-13T07:58:58.430Z,6.57
2018-06-13T08:01:26.883Z,8.23
2018-06-13T08:03:55.881Z,6.87
2018-06-13T08:06:24.482Z,6.80
2018-06-13T08:08:52.957Z,7.50
2018-06-13T08:11:21.476Z,7.80
2018-06-13T08:13:49.929Z,7.93
2018-06-13T08:16:18.378Z,8.67
2018-06-13T08:18:47.152Z,9.50
2018-06-13T08:21:15.585Z,9.50
2018-06-13T08:23:44.269Z,8.63
2018-06-13T08:26:12.641Z,8.23
2018-06-13T08:28:41.169Z,8.53
2018-06-13T08:31:09.667Z,8.20
2018-06-13T08:33:38.275Z,8.57
2018-06-13T08:36:06.706Z,8.23
2018-06-13T08:38:42.011Z,8.30
2018-06-13T08:41:10.555Z,8.47
2018-06-13T08:43:39.024Z,8.70
2018-06-13T08:46:07.658Z,8.30
2018-06-13T08:48:36.101Z,8.63
2018-06-13T08:51:05.046Z,9.63
2018-06-13T08:53:33.586Z,8.70
2018-06-13T08:56:02.196Z,8.60
2018-06-13T08:58:30.637Z,8.53
2018-06-13T09:00:59.470Z,7.63
2018-06-13T09:03:27.964Z,8.03
2018-06-13T09:05:56.433Z,9.27
2018-06-13T09:08:24.881Z,9.20
2018-06-13T09:10:54.309Z,9.10
2018-06-13T09:13:22.789Z,9.07
2018-06-13T09:15:51.305Z,9.23
2018-06-13T09:18:19.775Z,8.67
2018-06-13T09:20:48.316Z,8.87
2018-06-13T09:23:16.807Z,9.23
2018-06-13T09:25:45.267Z,9.13
2018-06-13T09:28:13.756Z,8.80
2018-06-13T09:30:42.169Z,8.97
2018-06-13T09:33:10.706Z,9.13
2018-06-13T09:35:39.182Z,9.77
2018-06-13T09:38:07.698Z,9.30
2018-06-13T09:40:36.139Z,9.17
2018-06-13T09:43:04.678Z,8.80
2018-06-13T09:45:33.104Z,9.10
2018-06-13T09:48:01.629Z,8.77
2018-06-13T09:50:30.820Z,8.60
2018-06-13T09:52:59.982Z,8.67
2018-06-13T09:55:28.476Z,8.70
2018-06-13T09:57:56.964Z,8.70
2018-06-13T10:00:30.694Z,8.97
2018-06-13T10:02:59.475Z,8.20
2018-06-13T10:05:27.980Z,8.33
2018-06-13T10:07:56.509Z,8.10
2018-06-13T10:10:25.012Z,8.47
2018-06-13T10:12:53.555Z,7.73
2018-06-13T10:15:22.206Z,7.27
2018-06-13T10:17:50.632Z,7.20
2018-06-13T10:20:19.255Z,6.83
2018-06-13T10:22:47.750Z,6.20
2018-06-13T10:25:16.288Z,6.30
2018-06-13T10:27:44.759Z,5.53
2018-06-13T10:30:13.429Z,5.63
2018-06-13T10:32:41.846Z,6.30
2018-06-13T10:35:11.917Z,6.00
2018-06-13T10:37:40.371Z,5.40
2018-06-13T10:40:08.902Z,5.80
2018-06-13T10:42:37.403Z,6.40
2018-06-13T10:45:05.865Z,5.90
2018-06-13T10:47:34.430Z,6.13
2018-06-13T10:50:02.983Z,5.90
2018-06-13T10:52:31.489Z,6.40
2018-06-13T10:55:00.118Z,5.80
2018-06-13T10:57:28.602Z,5.40
2018-06-13T10:59:57.116Z,5.97
2018-06-13T11:02:25.662Z,5.63
2018-06-13T11:04:54.161Z,4.90
2018-06-13T11:07:22.708Z,5.40
2018-06-13T11:09:51.213Z,4.93
2018-06-13T11:12:20.295Z,4.50
2018-06-13T11:14:48.829Z,4.87
2018-06-13T11:17:18.653Z,4.90
2018-06-13T11:19:47.118Z,5.00
2018-06-13T11:22:15.580Z,5.20
2018-06-13T11:24:44.685Z,4.80
2018-06-13T11:27:13.866Z,4.57
2018-06-13T11:29:42.323Z,4.67
2018-06-13T11:32:10.799Z,5.10
2018-06-13T11:34:40.099Z,5.30
2018-06-13T11:37:08.895Z,5.27
2018-06-13T11:39:37.468Z,5.40
2018-06-13T11:42:05.947Z,5.00
2018-06-13T11:44:34.447Z,5.60
2018-06-13T11:47:02.945Z,5.03
2018-06-13T11:49:31.527Z,5.50
2018-06-13T11:52:00.020Z,5.40
2018-06-13T11:54:28.553Z,5.13
2018-06-13T11:56:57.598Z,5.00
2018-06-13T11:59:26.041Z,5.40
2018-06-13T12:01:54.525Z,5.60
2018-06-13T12:04:23.031Z,4.90
2018-06-13T12:06:51.731Z,4.90
2018-06-13T12:09:20.243Z,5.30
2018-06-13T12:11:48.782Z,5.50
2018-06-13T12:14:17.303Z,4.80
2018-06-13T12:16:45.908Z,5.00
2018-06-13T12:19:14.495Z,4.60
2018-06-13T12:21:43.091Z,5.20
2018-06-13T12:24:11.609Z,4.80
2018-06-13T12:26:40.245Z,5.10
2018-06-13T12:29:08.734Z,5.17
2018-06-13T12:31:37.231Z,4.80
2018-06-13T12:34:05.951Z,4.80
2018-06-13T12:36:35.134Z,5.17
2018-06-13T12:39:04.078Z,5.33
2018-06-13T12:41:32.613Z,5.10
2018-06-13T12:44:01.167Z,5.00
2018-06-13T12:46:29.760Z,5.33
2018-06-13T12:48:59.005Z,5.17
2018-06-13T12:51:27.498Z,5.40
2018-06-13T12:53:56.128Z,4.80
2018-06-13T12:56:24.585Z,6.23
2018-06-13T12:58:53.213Z,5.97
2018-06-13T13:01:22.275Z,6.00
2018-06-13T13:03:50.837Z,5.20
2018-06-13T13:06:19.341Z,6.07
2018-06-13T13:08:47.924Z,5.47
2018-06-13T13:11:16.389Z,4.63
2018-06-13T13:13:44.974Z,5.63
2018-06-13T13:16:13.453Z,5.33
2018-06-13T13:18:42.080Z,5.50
2018-06-13T13:21:10.982Z,5.50
2018-06-13T13:23:39.468Z,5.20
2018-06-13T13:26:07.976Z,5.13
2018-06-13T13:28:36.498Z,4.80
2018-06-13T13:31:06.272Z,6.23
2018-06-13T13:33:34.794Z,5.10
2018-06-13T13:36:03.281Z,5.40
2018-06-13T13:38:31.776Z,5.90
2018-06-13T13:41:00.226Z,4.83
2018-06-13T13:43:28.703Z,5.17
2018-06-13T13:45:57.346Z,4.93
2018-06-13T13:48:25.927Z,4.70
2018-06-13T13:50:54.444Z,5.47
2018-06-13T13:53:22.979Z,5.70
2018-06-13T13:55:51.495Z,5.77
2018-06-13T13:58:24.310Z,5.67
2018-06-13T14:00:53.655Z,6.30
2018-06-13T14:03:22.141Z,5.70
2018-06-13T14:05:51.326Z,5.80
2018-06-13T14:08:19.807Z,5.67
2018-06-13T14:10:48.281Z,5.83
2018-06-13T14:13:16.709Z,5.80
2018-06-13T14:15:45.179Z,5.63
2018-06-13T14:18:13.668Z,5.37
2018-06-13T14:20:42.158Z,5.43
2018-06-13T14:23:10.703Z,5.03
2018-06-13T14:25:39.260Z,4.90
2018-06-13T14:28:07.753Z,4.53
2018-06-13T14:30:36.415Z,4.60
2018-06-13T14:33:04.937Z,4.83
2018-06-13T14:35:33.437Z,4.97
2018-06-13T14:38:02.175Z,4.60
2018-06-13T14:40:30.675Z,5.20
2018-06-13T14:42:59.847Z,4.70
2018-06-13T14:45:28.669Z,4.63
2018-06-13T14:47:57.163Z,4.80
2018-06-13T14:50:25.711Z,4.53
2018-06-13T14:52:54.321Z,4.70
2018-06-13T14:55:23.080Z,5.40
2018-06-13T14:57:51.662Z,4.30
2018-06-13T15:00:20.827Z,4.40
2018-06-13T15:02:49.479Z,4.50
2018-06-13T15:05:17.969Z,4.17
2018-06-13T15:07:46.525Z,4.33
2018-06-13T15:10:15.103Z,4.67
2018-06-13T15:12:43.622Z,4.90
2018-06-13T15:15:12.052Z,4.50
2018-06-13T15:17:40.643Z,4.53
2018-06-13T15:20:09.710Z,4.43
2018-06-13T15:22:38.219Z,4.10
2018-06-13T15:25:06.771Z,3.90
2018-06-13T15:27:35.325Z,4.17
2018-06-13T15:30:04.326Z,3.90
2018-06-13T15:32:32.867Z,3.80
2018-06-13T15:35:01.451Z,4.23
2018-06-13T15:37:29.990Z,4.40
2018-06-13T15:39:59.513Z,3.80
2018-06-13T15:42:27.996Z,4.00
2018-06-13T15:44:56.611Z,3.97
2018-06-13T15:47:25.064Z,3.73
2018-06-13T15:49:53.504Z,3.70
2018-06-13T15:52:22.077Z,4.30
2018-06-13T15:54:50.542Z,4.43
2018-06-13T15:57:19.242Z,4.83
2018-06-13T15:59:47.783Z,4.40
2018-06-13T16:02:16.787Z,4.10
2018-06-13T16:04:45.276Z,4.20
2018-06-13T16:07:13.861Z,4.17
2018-06-13T16:09:42.363Z,4.43
2018-06-13T16:12:10.872Z,4.07
2018-06-13T16:14:39.399Z,4.00
2018-06-13T16:17:07.883Z,4.27
2018-06-13T16:19:36.461Z,3.70
2018-06-13T16:22:05.046Z,3.80
2018-06-13T16:24:39.885Z,3.63
2018-06-13T16:27:08.456Z,4.00
2018-06-13T16:29:37.296Z,3.83
2018-06-13T16:32:05.806Z,3.90
2018-06-13T16:34:34.408Z,3.70
2018-06-13T16:37:03.102Z,3.80
2018-06-13T16:39:31.593Z,4.23
2018-06-13T16:42:00.371Z,4.30
2018-06-13T16:44:28.841Z,4.47
2018-06-13T16:46:57.403Z,3.87
2018-06-13T16:49:25.955Z,4.77
2018-06-13T16:51:55.895Z,3.90
2018-06-13T16:55:39.679Z,4.00
2018-06-13T16:58:08.796Z,4.50
2018-06-13T17:00:37.312Z,3.77
2018-06-13T17:03:05.971Z,4.23
2018-06-13T17:05:34.472Z,4.07
2018-06-13T17:08:03.167Z,4.27
2018-06-13T17:10:31.907Z,4.00
2018-06-13T17:13:00.913Z,4.00
2018-06-13T17:15:29.830Z,3.97
2018-06-13T17:17:58.370Z,5.23
2018-06-13T17:20:26.892Z,3.97
2018-06-13T17:22:55.523Z,4.40
2018-06-13T17:25:24.218Z,4.10
2018-06-13T17:27:54.049Z,4.73
2018-06-13T17:30:23.441Z,4.33
2018-06-13T17:32:53.795Z,4.37
2018-06-13T17:35:22.459Z,4.77
2018-06-13T17:37:51.805Z,5.00
2018-06-13T17:40:20.400Z,5.07
2018-06-13T17:42:49.044Z,4.83
2018-06-13T17:45:17.593Z,4.67
2018-06-13T17:47:46.168Z,5.17
2018-06-13T17:50:14.631Z,4.33
2018-06-13T17:52:43.158Z,4.50
2018-06-13T17:55:11.699Z,5.17
2018-06-13T17:57:40.277Z,4.30
2018-06-13T18:00:08.869Z,5.10
2018-06-13T18:02:37.388Z,5.00
2018-06-13T18:05:06.180Z,4.80
2018-06-13T18:07:34.700Z,4.80
2018-06-13T18:10:05.708Z,4.17
2018-06-13T18:12:34.284Z,4.60
2018-06-13T18:15:02.754Z,4.73
2018-06-13T18:17:31.466Z,4.70
2018-06-13T18:20:00.117Z,4.20
2018-06-13T18:22:29.046Z,4.33
2018-06-13T18:24:58.249Z,4.10
2018-06-13T18:27:26.857Z,4.27
2018-06-13T18:29:55.763Z,3.80
2018-06-13T18:32:24.302Z,4.07
2018-06-13T18:34:52.871Z,3.53
2018-06-13T18:37:22.376Z,4.30
2018-06-13T18:39:50.906Z,3.60
2018-06-13T18:42:19.471Z,4.30
2018-06-13T18:44:48.311Z,3.90
2018-06-13T18:47:16.847Z,4.20
2018-06-13T18:49:45.337Z,4.20
2018-06-13T18:52:14.027Z,4.40
2018-06-13T18:54:42.491Z,3.60
2018-06-13T18:57:11.151Z,4.13
2018-06-13T18:59:39.704Z,4.10
2018-06-13T19:02:08.769Z,4.40
2018-06-13T19:04:37.230Z,4.00
2018-06-13T19:07:06.149Z,4.17
2018-06-13T19:09:34.728Z,4.07
2018-06-13T19:12:04.441Z,4.20
2018-06-13T19:14:32.871Z,3.90
2018-06-13T19:17:01.404Z,4.43
2018-06-13T19:19:30.705Z,4.07
2018-06-13T19:21:59.328Z,4.40
2018-06-13T19:24:28.240Z,4.10
2018-06-13T19:26:56.661Z,4.63
2018-06-13T19:29:26.516Z,4.20
2018-06-13T19:31:55.114Z,4.63
2018-06-13T19:34:23.677Z,3.90
2018-06-13T19:36:52.204Z,4.50
2018-06-13T19:39:20.713Z,4.53
2018-06-13T19:41:49.321Z,4.20
2018-06-13T19:44:17.796Z,4.70
2018-06-13T19:46:46.346Z,5.87
2018-06-13T19:49:14.813Z,5.30
2018-06-13T19:51:44.234Z,4.47
2018-06-13T19:54:18.159Z,4.93
2018-06-13T19:56:49.594Z,5.00
2018-06-13T19:59:18.124Z,5.13
2018-06-13T20:01:47.307Z,4.90
2018-06-13T20:04:21.611Z,5.60
2018-06-13T20:06:50.226Z,5.67
2018-06-13T20:09:18.712Z,5.00
2018-06-13T20:11:47.231Z,5.07
2018-06-13T20:14:20.973Z,4.90
2018-06-13T20:16:54.777Z,5.37
2018-06-13T20:19:28.465Z,5.50
2018-06-13T20:21:58.314Z,5.30
2018-06-13T20:24:26.852Z,5.07
2018-06-13T20:27:00.788Z,5.23
2018-06-13T20:29:34.836Z,5.07
2018-06-13T20:32:03.499Z,5.20
2018-06-13T20:34:33.096Z,5.13
2018-06-13T20:37:01.686Z,5.70
2018-06-13T20:39:30.311Z,4.93
2018-06-13T20:41:59.627Z,6.03
2018-06-13T20:44:28.125Z,5.27
2018-06-13T20:46:56.646Z,5.23
2018-06-13T20:49:25.822Z,5.57
2018-06-13T20:51:54.645Z,5.60
2018-06-13T20:54:23.234Z,4.70
2018-06-13T20:56:51.845Z,5.70
2018-06-13T20:59:20.590Z,5.50
2018-06-13T21:01:49.298Z,5.30
2018-06-13T21:04:18.039Z,5.93
2018-06-13T21:06:46.703Z,4.53
2018-06-13T21:09:15.271Z,5.07
2018-06-13T21:11:43.988Z,5.50
2018-06-13T21:14:12.749Z,5.30
2018-06-13T21:16:41.318Z,5.13
2018-06-13T21:19:09.913Z,5.23
2018-06-13T21:21:39.681Z,5.77
2018-06-13T21:24:08.581Z,5.43
2018-06-13T21:26:37.579Z,6.97
2018-06-13T21:29:06.248Z,5.37
2018-06-13T21:31:34.820Z,5.63
2018-06-13T21:34:04.227Z,5.00
2018-06-13T21:36:32.781Z,5.50
2018-06-13T21:39:02.113Z,5.93
2018-06-13T21:41:30.572Z,5.87
2018-06-13T21:43:59.280Z,5.30
2018-06-13T21:46:27.893Z,5.87
2018-06-13T21:48:56.516Z,5.70
2018-06-13T21:51:25.068Z,6.20
2018-06-13T21:53:53.719Z,6.03
2018-06-13T21:56:22.364Z,5.63
2018-06-13T21:58:52.202Z,5.50
2018-06-13T22:01:21.353Z,5.50
2018-06-13T22:03:49.850Z,6.20
2018-06-13T22:06:18.398Z,5.70
2018-06-13T22:08:46.957Z,5.37
2018-06-13T22:11:16.592Z,6.10
2018-06-13T22:13:45.042Z,5.33
2018-06-13T22:16:13.702Z,5.57
2018-06-13T22:18:42.939Z,5.70
2018-06-13T22:21:11.815Z,5.60
2018-06-13T22:23:40.833Z,5.50
2018-06-13T22:26:10.194Z,5.43
2018-06-13T22:28:38.722Z,5.07
2018-06-13T22:31:08.113Z,5.30
2018-06-13T22:33:37.038Z,5.33
2018-06-13T22:36:05.983Z,5.50
2018-06-13T22:38:34.430Z,5.20
2018-06-13T22:41:03.058Z,5.90
2018-06-13T22:43:31.516Z,5.57
2018-06-13T22:46:00.036Z,5.40
2018-06-13T22:48:28.994Z,6.00
2018-06-13T22:50:57.612Z,5.37
2018-06-13T22:53:26.182Z,5.50
2018-06-13T22:55:55.247Z,5.80
2018-06-13T22:58:23.791Z,5.23
2018-06-13T23:01:01.855Z,5.20
2018-06-13T23:03:31.163Z,5.57
2018-06-13T23:06:07.589Z,5.77
2018-06-13T23:08:37.493Z,5.30
2018-06-13T23:11:06.691Z,5.30
2018-06-13T23:13:35.656Z,6.07
2018-06-13T23:16:04.239Z,5.60
2018-06-13T23:18:32.990Z,5.60
2018-06-13T23:21:01.599Z,5.70
2018-06-13T23:23:30.244Z,5.77
2018-06-13T23:25:58.878Z,5.07
2018-06-13T23:28:27.412Z,5.17
2018-06-13T23:30:56.328Z,5.87
2018-06-13T23:33:24.890Z,5.40
2018-06-13T23:35:54.206Z,6.00
2018-06-13T23:38:22.808Z,6.23
2018-06-13T23:40:51.357Z,5.23
2018-06-13T23:43:20.427Z,5.90
2018-06-13T23:45:49.300Z,5.73
2018-06-13T23:48:18.097Z,6.17
2018-06-13T23:50:47.019Z,5.77
2018-06-13T23:53:15.836Z,6.17
2018-06-13T23:55:44.370Z,5.77
2018-06-13T23:58:13.226Z,5.37
